Time;durP1;ratioP1;P1;durP2;ratioP2;P2;SDS_P1;SDS_P2;PMS_P1;PMS_P2;Temp;Humidity;BMP_temperature;BMP_pressure;BME280_temperature;BME280_humidity;BME280_pressure;Samples;Min_cycle;Max_cycle;Signal;HPM_P1;HPM_P2
2023/08/09 00:01:17;;;;;;;2.28;0.60;;;13.40;99.90;;;;;;5112983;28;20042;-87
2023/08/09 00:03:42;;;;;;;3.33;0.93;;;13.40;99.90;;;;;;5113477;27;20082;-86
2023/08/09 00:06:08;;;;;;;4.00;1.20;;;13.40;99.90;;;;;;5114739;27;20038;-86
2023/08/09 00:08:34;;;;;;;4.50;1.08;;;13.40;99.90;;;;;;5133041;27;20452;-87
2023/08/09 00:11:00;;;;;;;4.47;1.00;;;13.40;99.90;;;;;;5116726;27;20043;-86
2023/08/09 00:13:25;;;;;;;4.10;1.20;;;13.30;99.90;;;;;;5137477;27;20035;-87
2023/08/09 00:15:52;;;;;;;5.90;1.13;;;13.30;99.90;;;;;;5123921;27;20050;-86
2023/08/09 00:18:18;;;;;;;5.05;1.30;;;13.30;99.90;;;;;;5133345;27;20043;-87
2023/08/09 00:20:44;;;;;;;5.65;1.25;;;13.30;99.90;;;;;;5117643;27;20374;-86
2023/08/09 00:23:10;;;;;;;10.18;1.67;;;13.30;99.90;;;;;;5115340;27;20049;-86
2023/08/09 00:25:35;;;;;;;3.90;1.10;;;13.20;99.90;;;;;;5114790;27;20114;-86
2023/08/09 00:28:02;;;;;;;2.92;0.98;;;13.20;99.90;;;;;;5115337;27;20262;-86
2023/08/09 00:30:27;;;;;;;5.68;1.75;;;13.20;99.90;;;;;;5133247;27;20043;-86
2023/08/09 00:32:53;;;;;;;6.30;1.60;;;13.20;99.90;;;;;;5117402;27;20043;-86
2023/08/09 00:35:19;;;;;;;5.88;1.40;;;13.10;99.90;;;;;;5128950;27;20062;-86
2023/08/09 00:37:44;;;;;;;8.48;1.63;;;13.10;99.90;;;;;;5114191;27;20093;-86
2023/08/09 00:40:13;;;;;;;5.30;1.40;;;13.10;99.90;;;;;;5128488;27;20039;-86
2023/08/09 00:42:40;;;;;;;7.22;1.10;;;13.10;99.90;;;;;;5116496;27;20477;-87
2023/08/09 00:45:07;;;;;;;3.97;1.50;;;13.10;99.90;;;;;;5120189;27;20508;-86
2023/08/09 00:47:34;;;;;;;4.05;1.50;;;13.10;99.90;;;;;;5132746;27;20035;-87
2023/08/09 00:50:01;;;;;;;3.10;1.20;;;13.10;99.90;;;;;;5124062;27;20453;-86
2023/08/09 00:52:27;;;;;;;3.67;1.35;;;13.00;99.90;;;;;;5118834;27;20031;-86
2023/08/09 00:54:53;;;;;;;3.40;1.20;;;13.00;99.90;;;;;;5136241;27;20117;-87
2023/08/09 00:57:19;;;;;;;5.68;1.50;;;12.90;99.90;;;;;;5136664;27;20047;-87
2023/08/09 00:59:45;;;;;;;6.20;1.27;;;12.90;99.90;;;;;;5114229;27;20034;-87
2023/08/09 01:02:11;;;;;;;3.20;1.10;;;12.90;99.90;;;;;;5114809;27;20043;-86
2023/08/09 01:04:38;;;;;;;5.80;1.40;;;12.80;99.90;;;;;;5122317;27;20397;-87
2023/08/09 01:07:26;;;;;;;4.75;1.23;;;12.80;99.90;;;;;;5135564;27;20096;-86
2023/08/09 01:10:15;;;;;;;4.15;1.25;;;12.80;99.90;;;;;;5121756;27;20054;-87
2023/08/09 01:12:49;;;;;;;4.38;1.13;;;12.80;99.90;;;;;;5131344;27;20114;-86
2023/08/09 01:15:17;;;;;;;3.38;1.13;;;12.80;99.90;;;;;;5139312;27;20504;-87
2023/08/09 01:17:49;;;;;;;6.38;2.00;;;13.00;99.90;;;;;;5111724;27;20050;-87
2023/08/09 01:20:16;;;;;;;3.92;1.30;;;12.80;99.90;;;;;;5107665;27;20039;-87
2023/08/09 01:22:56;;;;;;;4.40;1.52;;;12.70;99.90;;;;;;5096927;27;20039;-87
2023/08/09 01:25:22;;;;;;;4.38;1.13;;;12.70;99.90;;;;;;5119200;27;20047;-87
2023/08/09 01:27:48;;;;;;;4.00;1.20;;;12.70;99.90;;;;;;5119455;27;20366;-86
2023/08/09 01:30:15;;;;;;;3.50;0.98;;;12.70;99.90;;;;;;5114801;27;20513;-87
2023/08/09 01:32:41;;;;;;;2.22;0.80;;;12.70;99.90;;;;;;5135353;27;20071;-86
2023/08/09 01:35:07;;;;;;;2.97;1.20;;;12.60;99.90;;;;;;5139380;27;20035;-86
2023/08/09 01:37:47;;;;;;;3.95;2.13;;;12.60;99.90;;;;;;5139182;27;20039;-86
2023/08/09 01:40:16;;;;;;;3.95;1.20;;;12.60;99.90;;;;;;5140363;27;20195;-87
2023/08/09 01:42:42;;;;;;;6.70;1.50;;;12.60;99.90;;;;;;5126396;27;20102;-87
2023/08/09 01:45:12;;;;;;;4.53;1.42;;;12.60;99.90;;;;;;5140226;27;20426;-87
2023/08/09 01:47:40;;;;;;;2.70;1.25;;;12.60;99.90;;;;;;5119778;27;20144;-86
2023/08/09 01:50:15;;;;;;;4.57;1.45;;;12.60;99.90;;;;;;5138970;27;20043;-87
2023/08/09 01:52:41;;;;;;;5.25;1.42;;;12.60;99.90;;;;;;5136040;27;20088;-86
2023/08/09 01:55:07;;;;;;;4.38;1.65;;;12.50;99.90;;;;;;5136270;27;20035;-87
2023/08/09 01:57:33;;;;;;;3.05;1.08;;;12.50;99.90;;;;;;5140941;27;20057;-86
2023/08/09 01:59:58;;;;;;;5.32;1.35;;;12.50;99.90;;;;;;5141282;27;20026;-86
2023/08/09 02:02:24;;;;;;;5.95;2.00;;;12.50;99.90;;;;;;5135981;27;20500;-87
2023/08/09 02:04:50;;;;;;;5.30;1.50;;;12.40;99.90;;;;;;5116152;27;20042;-87
2023/08/09 02:07:15;;;;;;;4.20;1.65;;;12.40;99.90;;;;;;5117726;27;20485;-86
2023/08/09 02:09:41;;;;;;;3.22;1.10;;;12.40;99.90;;;;;;5123761;27;20046;-86
2023/08/09 02:12:07;;;;;;;4.88;1.88;;;12.40;99.90;;;;;;5118370;27;20039;-87
2023/08/09 02:14:32;;;;;;;4.03;1.10;;;12.40;99.90;;;;;;5138918;27;20195;-87
2023/08/09 02:16:59;;;;;;;7.57;1.35;;;12.30;99.90;;;;;;5118383;27;20538;-87
2023/08/09 02:19:24;;;;;;;6.90;1.65;;;12.30;99.90;;;;;;5112744;27;20039;-86
2023/08/09 02:21:50;;;;;;;6.15;1.50;;;12.30;99.90;;;;;;5116023;27;20023;-87
2023/08/09 02:24:16;;;;;;;4.20;1.25;;;12.30;99.90;;;;;;5129898;27;20114;-86
2023/08/09 02:26:42;;;;;;;3.65;1.60;;;12.30;99.90;;;;;;5138541;27;20498;-86
2023/08/09 02:29:08;;;;;;;6.90;1.95;;;12.30;99.90;;;;;;5132215;27;20150;-86
2023/08/09 02:31:34;;;;;;;4.28;1.60;;;12.20;99.90;;;;;;5109917;27;20672;-86
2023/08/09 02:34:00;;;;;;;4.45;1.60;;;12.20;99.90;;;;;;5124657;27;20802;-87
2023/08/09 02:36:26;;;;;;;4.28;1.42;;;12.20;99.90;;;;;;5090189;27;20409;-86
2023/08/09 02:38:52;;;;;;;7.63;2.58;;;12.30;99.90;;;;;;5132867;27;20737;-86
2023/08/09 02:41:19;;;;;;;6.05;1.73;;;12.20;99.90;;;;;;5128570;27;20030;-86
2023/08/09 02:43:45;;;;;;;3.90;1.33;;;12.20;99.90;;;;;;5126651;27;20109;-86
2023/08/09 02:46:12;;;;;;;6.28;1.85;;;12.20;99.90;;;;;;5124312;27;20031;-87
2023/08/09 02:48:38;;;;;;;4.72;1.70;;;12.20;99.90;;;;;;5129246;27;20038;-87
2023/08/09 02:51:04;;;;;;;7.63;1.52;;;12.20;99.90;;;;;;5117874;27;20374;-87
2023/08/09 02:53:38;;;;;;;4.55;1.80;;;12.20;99.90;;;;;;5123436;27;20071;-86
2023/08/09 02:56:04;;;;;;;3.83;1.83;;;12.20;99.90;;;;;;5136040;27;20034;-87
2023/08/09 02:58:29;;;;;;;4.82;1.50;;;12.10;99.90;;;;;;5117977;27;20049;-87
2023/08/09 03:00:55;;;;;;;7.95;1.55;;;12.10;99.90;;;;;;5125649;27;20043;-86
2023/08/09 03:03:20;;;;;;;4.38;1.60;;;12.10;99.90;;;;;;5102855;27;20071;-86
2023/08/09 03:05:46;;;;;;;5.45;2.00;;;12.00;99.90;;;;;;5119746;27;20038;-87
2023/08/09 03:08:12;;;;;;;4.22;1.40;;;12.00;99.90;;;;;;5141149;27;20384;-87
2023/08/09 03:10:38;;;;;;;4.93;1.98;;;12.30;99.90;;;;;;5137828;27;20038;-87
2023/08/09 03:13:03;;;;;;;8.88;2.25;;;12.10;99.90;;;;;;5108252;27;20041;-86
2023/08/09 03:15:29;;;;;;;10.25;2.10;;;12.00;99.90;;;;;;5131853;27;20477;-86
2023/08/09 03:17:55;;;;;;;4.63;1.42;;;12.10;99.90;;;;;;5135909;27;20037;-87
2023/08/09 03:20:22;;;;;;;4.55;2.25;;;11.90;99.90;;;;;;5117518;27;20081;-86
2023/08/09 03:22:48;;;;;;;3.35;1.40;;;11.90;99.90;;;;;;5112777;27;20104;-86
2023/08/09 03:25:14;;;;;;;4.80;1.42;;;11.90;99.90;;;;;;5118652;27;20167;-87
2023/08/09 03:27:40;;;;;;;6.70;2.35;;;11.90;99.90;;;;;;5111982;27;20031;-86
2023/08/09 03:30:08;;;;;;;5.93;2.15;;;11.90;99.90;;;;;;5114565;27;20042;-86
2023/08/09 03:32:35;;;;;;;4.53;1.95;;;11.90;99.90;;;;;;5140560;27;20415;-87
2023/08/09 03:35:01;;;;;;;4.32;1.90;;;11.80;99.90;;;;;;5130513;27;20026;-87
2023/08/09 03:37:27;;;;;;;6.47;2.40;;;11.80;99.90;;;;;;5131572;27;20047;-87
2023/08/09 03:39:53;;;;;;;6.15;1.95;;;11.90;99.90;;;;;;5136933;27;20058;-86
2023/08/09 03:42:18;;;;;;;5.40;1.88;;;11.80;99.90;;;;;;5140793;27;20095;-87
2023/08/09 03:44:44;;;;;;;5.38;2.00;;;11.80;99.90;;;;;;5115794;27;20043;-87
2023/08/09 03:47:10;;;;;;;4.95;1.60;;;11.80;99.90;;;;;;5114828;27;20057;-86
2023/08/09 03:49:35;;;;;;;6.70;2.17;;;11.80;99.90;;;;;;5130221;27;20031;-86
2023/08/09 03:52:01;;;;;;;6.07;2.55;;;11.80;99.90;;;;;;5129490;27;20092;-87
2023/08/09 03:54:28;;;;;;;5.35;1.80;;;11.80;99.90;;;;;;5140012;27;20059;-87
2023/08/09 03:56:53;;;;;;;5.07;1.98;;;11.80;99.90;;;;;;5138575;27;20329;-86
2023/08/09 03:59:19;;;;;;;4.72;2.03;;;11.70;99.90;;;;;;5116474;27;20046;-86
2023/08/09 04:01:45;;;;;;;5.93;1.73;;;11.70;99.90;;;;;;5129206;27;20039;-86
2023/08/09 04:04:10;;;;;;;4.40;2.25;;;11.70;99.90;;;;;;5134734;27;20043;-86
2023/08/09 04:06:36;;;;;;;5.38;2.08;;;11.70;99.90;;;;;;5135761;27;20035;-87
2023/08/09 04:09:02;;;;;;;6.47;1.80;;;11.70;99.90;;;;;;5117691;27;20042;-87
2023/08/09 04:11:29;;;;;;;5.68;1.60;;;11.70;99.90;;;;;;5136426;27;20039;-87
2023/08/09 04:13:55;;;;;;;7.90;3.05;;;11.60;99.90;;;;;;5118966;27;20039;-87
2023/08/09 04:16:20;;;;;;;6.38;1.88;;;11.70;99.90;;;;;;5110405;27;20035;-86
2023/08/09 04:18:46;;;;;;;7.13;2.53;;;11.70;99.90;;;;;;5135746;27;20039;-87
2023/08/09 04:21:11;;;;;;;3.97;1.70;;;11.70;99.90;;;;;;5137591;27;20039;-86
2023/08/09 04:23:37;;;;;;;7.00;2.53;;;11.70;99.90;;;;;;5135433;27;20035;-86
2023/08/09 04:26:03;;;;;;;7.82;2.40;;;11.70;99.90;;;;;;5139997;27;20709;-86
2023/08/09 04:28:29;;;;;;;7.82;2.42;;;11.60;99.90;;;;;;5116445;27;20074;-87
2023/08/09 04:30:55;;;;;;;5.70;2.35;;;11.60;99.90;;;;;;5138719;27;20513;-86
2023/08/09 04:33:22;;;;;;;6.80;2.58;;;11.60;99.90;;;;;;5116901;28;20039;-86
2023/08/09 04:35:48;;;;;;;5.43;1.90;;;11.50;99.90;;;;;;5112545;27;20389;-87
2023/08/09 04:38:14;;;;;;;5.32;2.13;;;11.50;99.90;;;;;;5121409;27;20049;-86
2023/08/09 04:40:40;;;;;;;5.75;2.40;;;11.50;99.90;;;;;;5117445;27;20047;-86
2023/08/09 04:43:06;;;;;;;5.93;2.33;;;11.50;99.90;;;;;;5111085;28;20042;-87
2023/08/09 04:45:32;;;;;;;6.20;2.25;;;11.50;99.90;;;;;;5093506;27;20031;-87
2023/08/09 04:47:58;;;;;;;6.00;2.10;;;11.50;99.90;;;;;;5119055;28;20489;-86
2023/08/09 04:50:24;;;;;;;6.50;2.13;;;11.50;99.90;;;;;;5110606;27;20122;-86
2023/08/09 04:52:50;;;;;;;6.03;2.50;;;11.70;99.90;;;;;;5124849;27;20046;-86
2023/08/09 04:55:16;;;;;;;7.55;2.35;;;11.60;99.90;;;;;;5133454;27;20063;-86
2023/08/09 04:57:42;;;;;;;7.20;2.20;;;11.60;99.90;;;;;;5119239;27;20066;-86
2023/08/09 05:00:12;;;;;;;4.03;1.80;;;11.60;99.90;;;;;;5133107;27;20126;-86
2023/08/09 05:02:38;;;;;;;8.10;2.55;;;11.60;99.90;;;;;;5128477;27;20053;-87
2023/08/09 05:05:04;;;;;;;5.88;1.98;;;11.60;99.90;;;;;;5127180;27;20055;-86
2023/08/09 05:07:30;;;;;;;4.28;1.52;;;11.60;99.90;;;;;;5120302;27;20034;-86
2023/08/09 05:09:55;;;;;;;4.35;1.92;;;11.60;99.90;;;;;;5135281;27;20049;-86
2023/08/09 05:12:21;;;;;;;5.18;2.13;;;11.70;99.90;;;;;;5132456;27;20042;-86
2023/08/09 05:14:47;;;;;;;4.03;1.65;;;11.70;99.90;;;;;;5113797;27;20041;-86
2023/08/09 05:17:12;;;;;;;7.28;1.92;;;11.70;99.90;;;;;;5136639;27;20156;-87
2023/08/09 05:19:38;;;;;;;4.38;1.88;;;11.70;99.90;;;;;;5122705;27;20035;-87
2023/08/09 05:22:03;;;;;;;5.78;2.53;;;11.70;99.90;;;;;;5128440;27;20047;-86
2023/08/09 05:24:29;;;;;;;6.57;2.17;;;11.70;99.90;;;;;;5132287;27;20031;-86
2023/08/09 05:26:55;;;;;;;9.18;2.47;;;11.80;99.90;;;;;;5132327;27;20035;-86
2023/08/09 05:29:21;;;;;;;5.78;2.10;;;11.80;99.90;;;;;;5118593;27;20389;-85
2023/08/09 05:31:47;;;;;;;9.13;2.20;;;11.80;99.90;;;;;;5121486;27;20027;-87
2023/08/09 05:34:12;;;;;;;7.65;2.58;;;11.80;99.90;;;;;;5137964;27;20141;-87
2023/08/09 05:36:38;;;;;;;4.72;1.60;;;11.90;99.90;;;;;;5133209;27;20075;-86
2023/08/09 05:39:04;;;;;;;4.50;1.45;;;11.90;99.90;;;;;;5136967;27;20062;-87
2023/08/09 05:41:29;;;;;;;5.88;1.55;;;11.90;99.90;;;;;;5116458;27;20490;-87
2023/08/09 05:43:55;;;;;;;4.38;1.77;;;12.10;99.90;;;;;;5132280;27;20103;-86
2023/08/09 05:46:21;;;;;;;5.55;2.15;;;12.00;99.90;;;;;;5114286;27;20035;-86
2023/08/09 05:48:46;;;;;;;5.82;2.00;;;11.90;99.90;;;;;;5113513;27;20043;-86
2023/08/09 05:51:12;;;;;;;4.32;1.70;;;12.20;99.90;;;;;;5120767;27;20043;-86
2023/08/09 05:53:37;;;;;;;6.43;2.00;;;12.20;99.90;;;;;;5115368;27;20531;-87
2023/08/09 05:56:03;;;;;;;4.97;2.03;;;12.00;99.90;;;;;;5119654;27;20381;-86
2023/08/09 05:58:29;;;;;;;4.55;1.70;;;12.00;99.90;;;;;;5131764;27;20039;-86
2023/08/09 06:00:56;;;;;;;4.32;1.58;;;12.00;99.90;;;;;;5122804;27;20046;-87
2023/08/09 06:03:22;;;;;;;4.68;1.48;;;12.00;99.90;;;;;;5138395;27;20138;-86
2023/08/09 06:05:48;;;;;;;5.07;1.90;;;12.10;99.90;;;;;;5113923;27;20167;-85
2023/08/09 06:08:13;;;;;;;6.30;1.77;;;12.10;99.90;;;;;;5135352;27;20564;-86
2023/08/09 06:10:39;;;;;;;4.10;1.58;;;12.10;99.90;;;;;;5137443;27;20027;-87
2023/08/09 06:13:05;;;;;;;4.38;1.52;;;12.20;99.90;;;;;;5101836;27;20035;-85
2023/08/09 06:15:30;;;;;;;4.28;1.65;;;12.20;99.90;;;;;;5140184;27;20155;-86
2023/08/09 06:17:56;;;;;;;7.15;2.22;;;12.30;99.90;;;;;;5134257;27;20393;-86
2023/08/09 06:20:22;;;;;;;3.03;1.30;;;12.30;99.90;;;;;;5133706;27;20037;-86
2023/08/09 06:22:48;;;;;;;5.32;1.55;;;12.30;99.90;;;;;;5132936;27;20505;-86
2023/08/09 06:25:14;;;;;;;3.95;1.30;;;12.30;99.90;;;;;;5136982;27;20049;-86
2023/08/09 06:27:40;;;;;;;5.45;1.40;;;12.40;99.90;;;;;;5120755;27;20034;-86
2023/08/09 06:30:06;;;;;;;6.55;1.83;;;12.50;99.90;;;;;;5117869;27;20027;-86
2023/08/09 06:32:32;;;;;;;5.80;1.70;;;12.50;99.90;;;;;;5121463;27;20058;-87
2023/08/09 06:34:58;;;;;;;5.85;1.65;;;12.50;99.90;;;;;;5110700;27;20043;-87
2023/08/09 06:37:24;;;;;;;6.78;1.42;;;12.70;99.90;;;;;;5131831;27;20333;-87
2023/08/09 06:39:52;;;;;;;4.50;1.38;;;12.90;99.90;;;;;;5134806;27;20031;-87
2023/08/09 06:42:18;;;;;;;5.53;1.50;;;12.60;99.90;;;;;;5134988;27;20039;-86
2023/08/09 06:44:43;;;;;;;6.38;1.60;;;12.70;99.90;;;;;;5131143;27;20122;-87
2023/08/09 06:47:10;;;;;;;3.90;1.17;;;12.70;99.90;;;;;;5133899;27;20288;-90
2023/08/09 06:49:36;;;;;;;4.57;1.48;;;12.80;99.90;;;;;;5133864;27;20038;-88
2023/08/09 06:52:02;;;;;;;4.50;1.33;;;12.90;99.90;;;;;;5117652;27;20039;-89
2023/08/09 06:54:28;;;;;;;6.10;1.23;;;12.90;99.90;;;;;;5129597;27;20502;-88
2023/08/09 06:56:53;;;;;;;4.07;1.52;;;13.00;99.90;;;;;;5123519;27;20392;-88
2023/08/09 06:59:19;;;;;;;5.78;1.45;;;13.00;99.90;;;;;;5118902;27;20058;-88
2023/08/09 07:01:48;;;;;;;5.40;1.30;;;13.10;99.90;;;;;;5115192;27;20039;-87
2023/08/09 07:04:18;;;;;;;5.93;1.25;;;13.20;99.90;;;;;;5120096;27;20142;-84
2023/08/09 07:06:44;;;;;;;5.32;1.40;;;13.30;99.90;;;;;;5106612;27;20099;-83
2023/08/09 07:09:11;;;;;;;9.18;1.40;;;13.40;99.90;;;;;;5124362;27;20047;-84
2023/08/09 07:11:37;;;;;;;3.20;0.93;;;13.50;99.90;;;;;;5137310;27;20035;-84
2023/08/09 07:14:03;;;;;;;5.03;1.20;;;13.50;99.90;;;;;;5118275;27;20568;-84
2023/08/09 07:16:29;;;;;;;7.68;1.33;;;13.70;99.90;;;;;;5136878;27;20035;-84
2023/08/09 07:18:54;;;;;;;4.50;1.40;;;13.60;99.90;;;;;;5133539;27;20027;-84
2023/08/09 07:21:21;;;;;;;5.63;1.40;;;13.80;99.90;;;;;;5134864;27;20035;-84
2023/08/09 07:23:47;;;;;;;4.20;1.20;;;13.70;99.90;;;;;;5120586;27;20034;-84
2023/08/09 07:26:12;;;;;;;4.85;1.10;;;13.70;99.90;;;;;;5118938;27;20091;-84
2023/08/09 07:28:38;;;;;;;6.95;1.10;;;13.80;99.90;;;;;;5134496;27;20035;-84
2023/08/09 07:31:15;;;;;;;3.35;0.90;;;13.80;99.90;;;;;;5124219;27;20482;-84
2023/08/09 07:33:40;;;;;;;5.88;1.20;;;13.90;99.90;;;;;;5119247;27;20031;-85
2023/08/09 07:36:06;;;;;;;5.32;1.00;;;14.00;99.90;;;;;;5136830;27;20084;-84
2023/08/09 07:38:34;;;;;;;3.88;1.10;;;14.00;99.90;;;;;;5114202;27;20143;-83
2023/08/09 07:41:01;;;;;;;4.80;1.10;;;14.10;99.90;;;;;;5138441;27;20060;-91
2023/08/09 07:43:27;;;;;;;2.97;0.82;;;14.20;99.90;;;;;;5099264;27;20042;-85
2023/08/09 07:45:53;;;;;;;4.40;0.80;;;14.30;99.90;;;;;;5142044;27;20427;-84
2023/08/09 07:48:18;;;;;;;1.90;0.70;;;14.40;99.90;;;;;;5122197;27;20087;-81
2023/08/09 07:50:44;;;;;;;3.25;1.05;;;14.50;99.90;;;;;;5133063;27;20047;-82
2023/08/09 07:53:10;;;;;;;4.05;1.10;;;14.50;99.90;;;;;;5129230;27;20088;-82
2023/08/09 07:55:35;;;;;;;4.82;1.35;;;14.70;99.90;;;;;;5135833;27;20019;-82
2023/08/09 07:58:01;;;;;;;32.35;4.82;;;14.80;99.90;;;;;;5101328;27;20042;-81
2023/08/09 08:00:27;;;;;;;13.88;1.40;;;15.00;99.90;;;;;;5111171;27;20111;-89
2023/08/09 08:02:53;;;;;;;12.48;1.63;;;15.20;99.90;;;;;;5111126;27;20043;-87
2023/08/09 08:05:19;;;;;;;15.80;1.35;;;15.40;99.90;;;;;;5112458;27;20036;-86
2023/08/09 08:07:45;;;;;;;9.93;1.17;;;15.60;99.90;;;;;;5116331;28;20029;-85
2023/08/09 08:10:14;;;;;;;13.90;1.02;;;15.60;99.90;;;;;;5129786;27;20482;-83
2023/08/09 08:12:42;;;;;;;4.30;0.80;;;15.80;99.90;;;;;;5133498;27;20026;-81
2023/08/09 08:15:08;;;;;;;4.40;0.90;;;15.90;99.90;;;;;;5129792;27;20066;-84
2023/08/09 08:17:34;;;;;;;4.88;0.80;;;16.00;99.90;;;;;;5135811;27;20122;-86
2023/08/09 08:20:00;;;;;;;4.90;0.70;;;16.10;99.90;;;;;;5138055;27;20105;-86
2023/08/09 09:47:24;;;;;;;3.60;0.70;;;18.90;99.90;;;;;;5096016;28;20040;-81
2023/08/09 09:49:53;;;;;;;1.77;0.68;;;19.00;99.90;;;;;;5089349;28;20048;-82
2023/08/09 09:52:20;;;;;;;1.77;0.70;;;19.10;99.90;;;;;;5093795;28;20089;-81
2023/08/09 09:54:46;;;;;;;3.22;0.88;;;19.30;99.90;;;;;;5098704;28;20051;-82
2023/08/09 09:57:12;;;;;;;3.45;0.55;;;19.40;99.90;;;;;;5096443;28;20055;-82
2023/08/09 09:59:38;;;;;;;2.22;0.70;;;19.50;99.90;;;;;;5092699;28;20044;-81
2023/08/09 10:02:05;;;;;;;2.88;0.73;;;19.40;99.90;;;;;;5090884;28;20050;-81
2023/08/09 10:04:31;;;;;;;4.13;1.23;;;19.40;99.90;;;;;;5098766;27;20083;-82
2023/08/09 10:06:57;;;;;;;4.30;0.80;;;19.50;99.90;;;;;;5087171;28;20032;-82
2023/08/09 10:09:24;;;;;;;2.75;0.77;;;19.60;99.90;;;;;;5093876;28;20051;-81
2023/08/09 10:11:51;;;;;;;3.10;0.65;;;19.60;99.90;;;;;;5083699;28;20041;-82
2023/08/09 10:14:18;;;;;;;2.45;0.60;;;19.70;99.90;;;;;;5090849;28;20092;-83
2023/08/09 10:16:45;;;;;;;1.80;0.60;;;19.80;99.90;;;;;;5093912;28;20054;-84
2023/08/09 10:19:17;;;;;;;2.47;0.60;;;20.00;99.90;;;;;;5098603;28;20078;-83
2023/08/09 10:21:43;;;;;;;2.85;0.80;;;19.90;99.90;;;;;;5098014;28;20390;-84
2023/08/09 10:24:14;;;;;;;0.95;0.40;;;19.80;99.90;;;;;;5095539;28;20096;-88
2023/08/09 10:26:44;;;;;;;2.70;0.60;;;19.70;99.90;;;;;;5085443;28;20035;-86
2023/08/09 10:29:18;;;;;;;2.15;0.45;;;19.50;99.90;;;;;;5078620;28;20085;-87
2023/08/09 10:31:48;;;;;;;;;;;19.50;99.90;;;;;;5093770;28;20085;-86
2023/08/09 10:34:15;;;;;;;2.30;0.85;;;19.50;99.90;;;;;;5094727;28;19923;-85
2023/08/09 10:36:41;;;;;;;4.35;0.90;;;19.50;99.90;;;;;;5083680;28;20032;-85
2023/08/09 10:39:14;;;;;;;2.53;0.68;;;19.50;99.90;;;;;;5092217;28;20048;-84
2023/08/09 10:42:01;;;;;;;4.45;0.82;;;19.50;99.90;;;;;;5103592;28;20044;-84
2023/08/09 10:44:35;;;;;;;4.63;0.70;;;19.40;99.90;;;;;;5075471;28;20071;-86
2023/08/09 10:47:21;;;;;;;5.35;0.60;;;19.40;99.90;;;;;;5087961;28;20044;-84
2023/08/09 10:49:53;;;;;;;2.78;0.80;;;19.20;99.90;;;;;;5077379;28;20478;-85
2023/08/09 10:52:40;;;;;;;3.10;0.77;;;19.20;99.90;;;;;;5091474;28;20130;-85
2023/08/09 10:55:18;;;;;;;2.35;0.80;;;19.40;99.90;;;;;;5079826;28;20047;-86
2023/08/09 10:57:48;;;;;;;2.72;0.60;;;19.60;99.90;;;;;;5088825;28;20079;-86
2023/08/09 11:00:14;;;;;;;1.83;0.60;;;19.70;99.90;;;;;;5089312;28;20040;-85
2023/08/09 11:02:57;;;;;;;2.45;0.70;;;19.80;99.90;;;;;;5093023;28;20122;-85
2023/08/09 11:05:24;;;;;;;3.05;0.73;;;19.80;99.90;;;;;;5090909;28;20051;-86
2023/08/09 11:07:53;;;;;;;5.07;0.90;;;19.80;99.90;;;;;;5089446;28;20077;-86
2023/08/09 11:10:34;;;;;;;3.97;1.08;;;19.80;99.90;;;;;;5088017;28;20040;-86
2023/08/09 11:13:08;;;;;;;2.35;0.60;;;19.90;99.90;;;;;;5090677;28;20050;-85
2023/08/09 11:15:35;;;;;;;2.25;0.65;;;19.90;99.90;;;;;;5090548;28;20074;-86
2023/08/09 11:18:01;;;;;;;3.00;0.75;;;19.90;99.90;;;;;;5088327;28;20495;-86
2023/08/09 11:20:27;;;;;;;1.98;0.70;;;19.80;99.90;;;;;;5089232;28;20040;-85
2023/08/09 11:22:57;;;;;;;1.83;0.60;;;19.90;99.90;;;;;;5089597;28;20524;-85
2023/08/09 11:25:25;;;;;;;2.13;0.80;;;20.00;99.90;;;;;;5107464;27;20535;-86
2023/08/09 11:27:55;;;;;;;2.67;0.70;;;20.10;99.90;;;;;;5071933;28;20040;-86
2023/08/09 11:30:22;;;;;;;1.70;0.63;;;20.30;99.90;;;;;;5087515;28;20044;-85
2023/08/09 11:32:59;;;;;;;3.38;1.10;;;20.50;99.90;;;;;;5089437;28;20032;-86
2023/08/09 11:35:39;;;;;;;2.78;0.70;;;20.70;99.90;;;;;;5085580;28;20044;-84
2023/08/09 11:38:09;;;;;;;5.47;0.70;;;20.70;99.90;;;;;;5089233;28;20571;-86
2023/08/09 11:40:46;;;;;;;3.88;0.80;;;20.50;99.90;;;;;;5072017;28;20048;-86
2023/08/09 11:43:17;;;;;;;2.53;0.65;;;20.50;99.90;;;;;;5090966;28;20087;-86
2023/08/09 11:45:48;;;;;;;4.22;0.70;;;20.60;99.90;;;;;;5090285;28;20130;-86
2023/08/09 11:48:25;;;;;;;4.78;0.77;;;20.70;99.90;;;;;;5087628;28;20139;-86
2023/08/09 11:51:11;;;;;;;2.53;0.70;;;20.90;99.90;;;;;;5089319;28;20451;-91
2023/08/09 11:53:38;;;;;;;2.13;0.60;;;21.10;99.90;;;;;;5089362;28;20028;-86
2023/08/09 11:56:07;;;;;;;7.25;0.88;;;21.10;99.90;;;;;;5095435;28;20142;-87
2023/08/09 11:58:35;;;;;;;3.28;0.80;;;21.10;99.90;;;;;;5093469;28;20063;-88
2023/08/09 12:01:21;;;;;;;2.60;0.82;;;21.10;99.90;;;;;;5094996;28;20064;-88
2023/08/09 12:03:49;;;;;;;2.88;0.75;;;21.20;99.90;;;;;;5094384;28;20540;-86
2023/08/09 12:06:17;;;;;;;2.80;0.70;;;21.20;99.90;;;;;;5100074;28;20492;-86
2023/08/09 12:08:42;;;;;;;2.38;0.70;;;21.10;99.90;;;;;;5098482;28;20076;-88
2023/08/09 12:11:13;;;;;;;7.45;1.20;;;21.10;99.90;;;;;;5098053;28;20132;-90
2023/08/09 12:13:39;;;;;;;1.58;0.70;;;21.10;99.90;;;;;;5100635;28;20047;-87
2023/08/09 12:16:06;;;;;;;4.55;0.90;;;21.20;99.90;;;;;;5097404;28;20084;-87
2023/08/09 12:18:35;;;;;;;2.50;0.77;;;21.40;99.90;;;;;;5101055;28;20040;-85
2023/08/09 12:21:02;;;;;;;2.15;0.70;;;21.50;99.90;;;;;;5098134;28;20047;-84
2023/08/09 12:23:28;;;;;;;2.75;1.10;;;21.70;99.90;;;;;;5096620;28;20043;-85
2023/08/09 12:25:53;;;;;;;2.38;0.80;;;21.80;99.90;;;;;;5079231;28;20042;-85
2023/08/09 12:28:19;;;;;;;3.40;0.90;;;21.80;99.90;;;;;;5104251;28;20050;-85
2023/08/09 12:30:45;;;;;;;2.75;1.02;;;21.80;99.90;;;;;;5094192;28;20505;-84
2023/08/09 12:33:11;;;;;;;2.53;0.95;;;21.80;99.90;;;;;;5097885;28;20036;-85
2023/08/09 12:35:36;;;;;;;2.70;0.80;;;21.90;99.90;;;;;;5101643;28;20039;-86
2023/08/09 12:38:02;;;;;;;3.08;0.70;;;22.00;99.90;;;;;;5100686;28;20557;-86
2023/08/09 12:40:28;;;;;;;3.05;0.95;;;22.00;99.90;;;;;;5099598;28;20081;-87
2023/08/09 12:42:54;;;;;;;2.67;0.80;;;21.90;99.90;;;;;;5093273;27;20505;-86
2023/08/09 12:45:19;;;;;;;3.38;0.90;;;21.70;99.90;;;;;;5095649;27;20044;-88
2023/08/09 12:47:45;;;;;;;4.53;0.80;;;21.50;99.90;;;;;;5118842;27;20407;-88
2023/08/09 12:50:11;;;;;;;1.90;0.70;;;21.30;99.90;;;;;;5096531;28;20436;-87
2023/08/09 12:52:37;;;;;;;3.05;0.90;;;21.30;99.90;;;;;;5100741;28;20092;-90
2023/08/09 12:55:04;;;;;;;3.20;0.93;;;21.20;99.90;;;;;;5097833;28;20036;-88
2023/08/09 12:57:30;;;;;;;2.58;0.90;;;21.30;99.90;;;;;;5112369;27;20047;-89
2023/08/09 12:59:57;;;;;;;3.40;0.88;;;21.60;99.90;;;;;;5115666;27;20036;-87
2023/08/09 13:02:22;;;;;;;3.05;0.90;;;21.70;99.90;;;;;;5117656;27;20087;-88
2023/08/09 13:04:50;;;;;;;3.70;1.17;;;21.60;99.90;;;;;;5111425;27;20055;-89
2023/08/09 13:07:15;;;;;;;4.70;0.90;;;21.50;99.90;;;;;;5108286;27;20079;-88
2023/08/09 13:09:41;;;;;;;2.72;0.88;;;21.40;99.90;;;;;;5089559;28;20123;-86
2023/08/09 13:12:09;;;;;;;3.20;0.80;;;21.30;99.90;;;;;;5090259;28;20036;-88
2023/08/09 13:14:38;;;;;;;2.30;1.00;;;21.10;99.90;;;;;;5117433;27;20067;-90
2023/08/09 13:17:05;;;;;;;3.60;0.90;;;21.00;99.90;;;;;;5088022;27;20363;-87
2023/08/09 13:19:34;;;;;;;3.97;0.85;;;21.00;99.90;;;;;;5099832;27;20473;-88
2023/08/09 13:22:00;;;;;;;3.00;0.90;;;21.10;99.90;;;;;;5114214;27;20490;-87
2023/08/09 13:24:25;;;;;;;3.25;0.73;;;21.30;99.90;;;;;;5116499;27;20039;-88
2023/08/09 13:26:53;;;;;;;2.55;0.77;;;21.50;99.90;;;;;;5096905;27;20035;-88
2023/08/09 13:29:19;;;;;;;4.72;1.10;;;21.60;99.90;;;;;;5116611;27;20039;-91
2023/08/09 13:31:44;;;;;;;6.85;1.08;;;21.70;99.90;;;;;;5097966;27;20070;-89
2023/08/09 13:34:10;;;;;;;5.03;0.98;;;21.70;99.90;;;;;;5095856;27;20042;-88
2023/08/09 13:36:36;;;;;;;3.65;0.90;;;21.70;99.90;;;;;;5100859;27;20397;-89
2023/08/09 13:39:01;;;;;;;7.03;0.98;;;21.80;99.90;;;;;;5107835;27;20043;-90
2023/08/09 13:41:27;;;;;;;2.95;1.00;;;21.90;99.90;;;;;;5118682;27;20455;-90
2023/08/09 13:43:53;;;;;;;2.25;0.73;;;22.00;99.90;;;;;;5116235;27;20676;-88
2023/08/09 13:46:18;;;;;;;2.67;0.70;;;22.10;99.90;;;;;;5100841;28;20100;-89
2023/08/09 13:48:44;;;;;;;2.45;0.80;;;22.20;99.90;;;;;;5116300;27;20032;-87
2023/08/09 13:51:09;;;;;;;4.47;0.80;;;22.20;99.90;;;;;;5099567;28;20035;-90
2023/08/09 13:53:35;;;;;;;3.40;0.75;;;22.30;99.90;;;;;;5113170;27;20039;-90
2023/08/09 14:29:43;;;;;;;2.47;0.70;;;23.10;99.90;;;;;;4871023;26;20049;-89
2023/08/09 14:32:13;;;;;;;5.75;0.93;;;23.20;99.90;;;;;;5042246;28;20148;-92
2023/08/09 14:34:39;;;;;;;5.90;1.00;;;23.20;99.90;;;;;;5068090;28;20551;-93
2023/08/09 14:37:05;;;;;;;4.97;1.10;;;23.20;99.90;;;;;;5046246;28;20135;-91
2023/08/09 14:39:37;;;;;;;5.75;1.00;;;23.10;99.90;;;;;;5042268;28;20444;-90
2023/08/09 14:42:04;;;;;;;5.10;1.00;;;22.90;99.90;;;;;;5045710;28;20041;-89
2023/08/09 14:44:30;;;;;;;5.40;1.10;;;22.70;99.90;;;;;;5042846;28;20063;-90
2023/08/09 14:46:55;;;;;;;6.47;1.00;;;22.70;99.90;;;;;;5068610;28;20480;-90